Time;durP1;ratioP1;P1;durP2;ratioP2;P2;SDS_P1;SDS_P2;PMS_P1;PMS_P2;Temp;Humidity;BMP_temperature;BMP_pressure;BME280_temperature;BME280_humidity;BME280_pressure;Samples;Min_cycle;Max_cycle;Signal;HPM_P1;HPM_P2
2023/06/21 00:00:38;;;;;;;15.52;11.10;;;;;;;;;;5009698;28;20506;-66
2023/06/21 00:03:05;;;;;;;20.50;11.77;;;;;;;;;;5000713;28;20037;-66
2023/06/21 00:05:31;;;;;;;21.25;11.88;;;;;;;;;;5004532;28;20038;-65
2023/06/21 00:07:58;;;;;;;21.77;11.68;;;;;;;;;;5010461;28;20050;-66
2023/06/21 00:10:27;;;;;;;21.85;11.60;;;;;;;;;;5010823;28;20040;-68
2023/06/21 00:12:53;;;;;;;20.37;11.87;;;;;;;;;;5012320;28;20054;-67
2023/06/21 00:15:20;;;;;;;24.17;11.45;;;;;;;;;;5000373;28;20346;-65
2023/06/21 00:17:47;;;;;;;24.75;11.75;;;;;;;;;;5004441;28;20453;-65
2023/06/21 00:20:13;;;;;;;21.42;11.48;;;;;;;;;;4994679;28;20038;-67
2023/06/21 00:22:40;;;;;;;21.13;11.52;;;;;;;;;;5000595;28;20042;-65
2023/06/21 00:25:07;;;;;;;18.52;11.40;;;;;;;;;;5000699;28;20046;-65
2023/06/21 00:27:35;;;;;;;18.30;11.57;;;;;;;;;;5004870;28;20061;-65
2023/06/21 00:30:02;;;;;;;17.25;11.32;;;;;;;;;;5005650;28;20030;-65
2023/06/21 00:32:31;;;;;;;21.73;11.35;;;;;;;;;;5004801;28;20411;-65
2023/06/21 00:34:57;;;;;;;19.58;11.25;;;;;;;;;;5003946;28;20037;-66
2023/06/21 00:37:26;;;;;;;19.98;11.30;;;;;;;;;;5007306;28;20058;-66
2023/06/21 00:39:52;;;;;;;20.60;11.43;;;;;;;;;;5007861;28;20033;-66
2023/06/21 00:42:18;;;;;;;23.75;10.93;;;;;;;;;;5000632;28;20037;-65
2023/06/21 00:44:44;;;;;;;20.52;11.48;;;;;;;;;;5004640;28;20049;-65
2023/06/21 00:47:11;;;;;;;24.63;12.05;;;;;;;;;;5009611;28;20033;-65
2023/06/21 00:49:38;;;;;;;23.48;11.68;;;;;;;;;;5008871;28;20037;-65
2023/06/21 00:52:05;;;;;;;17.63;11.40;;;;;;;;;;5005954;28;20033;-66
2023/06/21 00:54:36;;;;;;;23.27;11.88;;;;;;;;;;5003580;28;20049;-66
2023/06/21 00:57:06;;;;;;;25.13;11.98;;;;;;;;;;5001441;28;20060;-65
2023/06/21 00:59:32;;;;;;;19.05;11.32;;;;;;;;;;5011089;28;20565;-66
2023/06/21 01:02:00;;;;;;;21.38;10.95;;;;;;;;;;5006361;28;20078;-66
2023/06/21 01:04:32;;;;;;;19.95;10.75;;;;;;;;;;5002495;28;20034;-66
2023/06/21 01:07:12;;;;;;;21.42;11.93;;;;;;;;;;4995665;28;20049;-66
2023/06/21 01:09:57;;;;;;;22.48;11.18;;;;;;;;;;5013788;28;20041;-66
2023/06/21 01:12:44;;;;;;;23.55;11.55;;;;;;;;;;5008098;28;20048;-67
2023/06/21 01:15:23;;;;;;;24.40;12.20;;;;;;;;;;5000911;28;20037;-66
2023/06/21 01:17:52;;;;;;;20.67;11.77;;;;;;;;;;4991487;28;20055;-66
2023/06/21 01:20:30;;;;;;;20.70;11.77;;;;;;;;;;4988162;28;20042;-66
2023/06/21 01:23:38;;;;;;;19.00;11.32;;;;;;;;;;5002784;28;20037;-66
2023/06/21 01:26:53;;;;;;;23.00;11.52;;;;;;;;;;4931089;29;20047;-66
2023/06/21 01:29:21;;;;;;;29.15;11.98;;;;;;;;;;5003879;28;20049;-65
2023/06/21 01:31:52;;;;;;;21.38;12.10;;;;;;;;;;5004979;28;20408;-65
2023/06/21 01:34:19;;;;;;;22.17;11.85;;;;;;;;;;5003931;28;20043;-67
2023/06/21 01:36:46;;;;;;;20.30;12.20;;;;;;;;;;5003886;28;20053;-68
2023/06/21 01:39:12;;;;;;;28.48;11.23;;;;;;;;;;5004893;28;20041;-66
2023/06/21 01:41:38;;;;;;;17.75;11.30;;;;;;;;;;5003523;28;20098;-67
2023/06/21 01:44:09;;;;;;;19.15;11.77;;;;;;;;;;5010135;28;20068;-65
2023/06/21 01:46:36;;;;;;;19.90;11.93;;;;;;;;;;4995066;28;20030;-66
2023/06/21 01:49:04;;;;;;;19.10;11.02;;;;;;;;;;5003625;28;20399;-65
2023/06/21 01:51:31;;;;;;;22.30;11.73;;;;;;;;;;5001792;28;20522;-66
2023/06/21 01:53:58;;;;;;;29.35;12.23;;;;;;;;;;5007056;28;20414;-65
2023/06/21 01:56:25;;;;;;;21.95;10.90;;;;;;;;;;5007974;28;20173;-66
2023/06/21 01:58:51;;;;;;;21.20;12.05;;;;;;;;;;5002570;28;20049;-65
2023/06/21 02:01:21;;;;;;;22.75;11.45;;;;;;;;;;5001860;28;20034;-65
2023/06/21 02:03:55;;;;;;;18.70;11.27;;;;;;;;;;5014949;28;20054;-65
2023/06/21 02:06:24;;;;;;;22.33;11.70;;;;;;;;;;4984562;28;20034;-65
2023/06/21 02:08:51;;;;;;;17.90;10.88;;;;;;;;;;5004162;28;20029;-65
2023/06/21 02:11:18;;;;;;;16.40;11.10;;;;;;;;;;5014198;28;20030;-68
2023/06/21 02:13:48;;;;;;;21.95;11.23;;;;;;;;;;4985806;28;20041;-65
2023/06/21 02:16:15;;;;;;;20.13;11.32;;;;;;;;;;5006520;28;20459;-65
2023/06/21 02:18:41;;;;;;;20.10;11.73;;;;;;;;;;5016868;28;20033;-65
2023/06/21 02:21:08;;;;;;;23.55;11.48;;;;;;;;;;5004625;28;20050;-64
2023/06/21 02:23:34;;;;;;;21.65;11.77;;;;;;;;;;5002189;28;20593;-66
2023/06/21 02:26:02;;;;;;;22.48;11.68;;;;;;;;;;4997713;28;20039;-65
2023/06/21 02:28:28;;;;;;;17.35;11.68;;;;;;;;;;4997357;28;20073;-66
2023/06/21 02:30:54;;;;;;;16.55;10.88;;;;;;;;;;5011321;28;20589;-65
2023/06/21 02:33:21;;;;;;;20.65;11.43;;;;;;;;;;5007649;28;20546;-66
2023/06/21 02:35:47;;;;;;;24.13;12.50;;;;;;;;;;4993145;28;20046;-65
2023/06/21 02:38:13;;;;;;;20.88;12.02;;;;;;;;;;5017891;28;20034;-65
2023/06/21 02:40:39;;;;;;;19.95;11.63;;;;;;;;;;5023038;28;20038;-65
2023/06/21 02:43:05;;;;;;;24.23;11.98;;;;;;;;;;5001348;28;20515;-65
2023/06/21 02:45:32;;;;;;;19.67;12.25;;;;;;;;;;4998397;28;20046;-66
2023/06/21 02:47:58;;;;;;;27.20;11.75;;;;;;;;;;4996861;28;20058;-69
2023/06/21 02:50:24;;;;;;;21.75;11.52;;;;;;;;;;4994934;28;20056;-66
2023/06/21 02:52:51;;;;;;;19.90;11.43;;;;;;;;;;4999074;28;20034;-66
2023/06/21 02:55:17;;;;;;;24.10;12.05;;;;;;;;;;5013802;28;20399;-66
2023/06/21 02:57:44;;;;;;;22.08;12.15;;;;;;;;;;5004731;28;20038;-67
2023/06/21 03:00:19;;;;;;;21.70;11.82;;;;;;;;;;5007625;28;20050;-66
2023/06/21 03:02:45;;;;;;;20.90;11.68;;;;;;;;;;5016359;28;20052;-66
2023/06/21 03:05:12;;;;;;;26.95;12.35;;;;;;;;;;5007354;28;20506;-66
2023/06/21 03:07:43;;;;;;;21.27;11.75;;;;;;;;;;5003540;28;20064;-67
2023/06/21 03:10:14;;;;;;;20.08;11.55;;;;;;;;;;5013701;28;20038;-66
2023/06/21 03:12:42;;;;;;;21.15;13.00;;;;;;;;;;5001755;28;20046;-65
2023/06/21 03:15:10;;;;;;;26.17;12.30;;;;;;;;;;4995605;28;20092;-66
2023/06/21 03:17:37;;;;;;;18.45;12.13;;;;;;;;;;5000341;28;20069;-66
2023/06/21 03:20:13;;;;;;;22.63;11.95;;;;;;;;;;4995917;28;20046;-68
2023/06/21 03:22:42;;;;;;;27.35;13.07;;;;;;;;;;4997145;28;20042;-65
2023/06/21 03:25:14;;;;;;;21.45;11.50;;;;;;;;;;4984393;28;20042;-66
2023/06/21 03:27:43;;;;;;;18.02;11.90;;;;;;;;;;5000062;28;20038;-66
2023/06/21 03:30:13;;;;;;;22.10;12.27;;;;;;;;;;4996080;28;20038;-66
2023/06/21 03:32:46;;;;;;;19.02;11.63;;;;;;;;;;5002608;28;20384;-65
2023/06/21 03:35:17;;;;;;;17.25;11.35;;;;;;;;;;5002402;28;20038;-67
2023/06/21 03:37:46;;;;;;;19.88;11.98;;;;;;;;;;5001962;28;20065;-65
2023/06/21 03:40:15;;;;;;;23.13;11.90;;;;;;;;;;5004291;28;20396;-65
2023/06/21 03:42:43;;;;;;;19.35;11.50;;;;;;;;;;5000174;28;20045;-65
2023/06/21 03:45:11;;;;;;;18.92;11.88;;;;;;;;;;5003379;28;20042;-66
2023/06/21 03:47:39;;;;;;;27.52;15.57;;;;;;;;;;5002078;28;20041;-65
2023/06/21 03:50:07;;;;;;;20.95;13.20;;;;;;;;;;4996109;28;20049;-67
2023/06/21 03:52:33;;;;;;;20.20;12.38;;;;;;;;;;4994447;28;20046;-65
2023/06/21 03:55:01;;;;;;;23.63;11.90;;;;;;;;;;4996703;28;20045;-66
2023/06/21 03:57:28;;;;;;;20.30;11.90;;;;;;;;;;4996537;28;20061;-64
2023/06/21 03:59:54;;;;;;;21.20;12.23;;;;;;;;;;4989084;28;20505;-66
2023/06/21 04:02:21;;;;;;;21.00;13.02;;;;;;;;;;5006470;28;20033;-69
2023/06/21 04:04:48;;;;;;;24.48;11.98;;;;;;;;;;5003073;28;20041;-65
2023/06/21 04:07:18;;;;;;;19.27;13.07;;;;;;;;;;4999147;28;20500;-65
2023/06/21 04:09:45;;;;;;;21.83;13.25;;;;;;;;;;5013288;28;20046;-65
2023/06/21 04:12:11;;;;;;;22.58;12.93;;;;;;;;;;5005990;28;20443;-65
2023/06/21 04:14:38;;;;;;;19.52;12.48;;;;;;;;;;5019116;28;20050;-66
2023/06/21 04:17:05;;;;;;;20.90;12.55;;;;;;;;;;5002099;28;20049;-66
2023/06/21 04:19:32;;;;;;;20.88;13.32;;;;;;;;;;5002279;28;20037;-65
2023/06/21 04:21:58;;;;;;;19.30;13.93;;;;;;;;;;5002219;28;20034;-64
2023/06/21 04:24:24;;;;;;;22.58;12.70;;;;;;;;;;4998966;28;20045;-65
2023/06/21 04:26:50;;;;;;;20.05;11.90;;;;;;;;;;5003141;28;20038;-65
2023/06/21 04:29:20;;;;;;;19.38;12.18;;;;;;;;;;5007877;28;20058;-65
2023/06/21 04:31:46;;;;;;;20.23;12.15;;;;;;;;;;5006574;28;20037;-65
2023/06/21 04:34:12;;;;;;;21.02;11.65;;;;;;;;;;5004191;28;20050;-65
2023/06/21 04:36:38;;;;;;;19.30;12.75;;;;;;;;;;5000194;28;20058;-65
2023/06/21 04:39:05;;;;;;;26.23;13.20;;;;;;;;;;5005860;28;20227;-65
2023/06/21 04:41:31;;;;;;;23.20;12.43;;;;;;;;;;5005391;28;20354;-64
2023/06/21 04:43:58;;;;;;;23.70;11.73;;;;;;;;;;5007231;28;20030;-64
2023/06/21 04:46:27;;;;;;;20.38;12.00;;;;;;;;;;5002858;28;20038;-65
2023/06/21 04:48:53;;;;;;;25.48;13.90;;;;;;;;;;5007048;28;20041;-65
2023/06/21 04:51:19;;;;;;;25.30;12.77;;;;;;;;;;4999012;28;20058;-65
2023/06/21 04:53:46;;;;;;;26.10;13.02;;;;;;;;;;5002721;28;20429;-65
2023/06/21 04:56:12;;;;;;;19.80;13.02;;;;;;;;;;5005739;28;20518;-65
2023/06/21 04:58:39;;;;;;;23.83;14.23;;;;;;;;;;5005638;28;20042;-65
2023/06/21 05:01:06;;;;;;;25.00;12.55;;;;;;;;;;5006234;28;20037;-64
2023/06/21 05:03:32;;;;;;;22.65;12.45;;;;;;;;;;5003753;28;20034;-64
2023/06/21 05:06:02;;;;;;;25.02;14.20;;;;;;;;;;4999813;28;20056;-65
2023/06/21 05:08:28;;;;;;;;;;;;;;;;;;5005750;28;20063;-65
2023/06/21 05:10:54;;;;;;;22.45;12.20;;;;;;;;;;5001262;28;20190;-66
2023/06/21 05:13:20;;;;;;;25.30;13.48;;;;;;;;;;5006653;28;20041;-65
2023/06/21 05:15:46;;;;;;;23.40;13.38;;;;;;;;;;5003950;28;20059;-64
2023/06/21 05:18:12;;;;;;;24.17;13.43;;;;;;;;;;5002401;28;20046;-64
2023/06/21 05:20:39;;;;;;;27.98;13.65;;;;;;;;;;5000603;28;20427;-65
2023/06/21 05:23:05;;;;;;;19.90;12.32;;;;;;;;;;5002364;28;20038;-65
2023/06/21 05:25:31;;;;;;;25.33;14.07;;;;;;;;;;5002606;28;20504;-66
2023/06/21 05:27:57;;;;;;;27.80;13.55;;;;;;;;;;5012155;28;20037;-66
2023/06/21 05:30:23;;;;;;;24.63;13.40;;;;;;;;;;5007391;28;20054;-64
2023/06/21 05:32:49;;;;;;;25.38;12.98;;;;;;;;;;5004263;28;20038;-64
2023/06/21 05:35:15;;;;;;;26.65;13.07;;;;;;;;;;5012400;28;20038;-65
2023/06/21 05:37:42;;;;;;;19.65;12.63;;;;;;;;;;4996733;28;20046;-64
2023/06/21 05:40:10;;;;;;;18.10;12.07;;;;;;;;;;5005262;28;20051;-65
2023/06/21 05:42:37;;;;;;;19.50;12.98;;;;;;;;;;4998856;28;20042;-64
2023/06/21 05:45:05;;;;;;;19.27;12.23;;;;;;;;;;5012490;28;20072;-66
2023/06/21 05:47:31;;;;;;;20.38;13.30;;;;;;;;;;5013803;28;20046;-66
2023/06/21 05:49:57;;;;;;;21.52;12.55;;;;;;;;;;5018877;28;20037;-65
2023/06/21 05:52:23;;;;;;;20.52;12.57;;;;;;;;;;5018621;28;20030;-66
2023/06/21 05:54:50;;;;;;;25.83;13.38;;;;;;;;;;5019446;28;20037;-64
2023/06/21 05:57:16;;;;;;;18.77;13.13;;;;;;;;;;5010361;28;20053;-65
2023/06/21 05:59:43;;;;;;;24.25;12.57;;;;;;;;;;5020752;28;20045;-65
2023/06/21 06:02:09;;;;;;;24.02;13.02;;;;;;;;;;5019939;28;20034;-66
2023/06/21 06:04:36;;;;;;;25.38;14.18;;;;;;;;;;5023836;28;20045;-65
2023/06/21 06:07:03;;;;;;;24.42;15.05;;;;;;;;;;5024538;28;20033;-65
2023/06/21 06:09:30;;;;;;;22.77;13.88;;;;;;;;;;5018797;28;20033;-65
2023/06/21 06:11:56;;;;;;;23.38;13.13;;;;;;;;;;5009830;28;20396;-65
2023/06/21 06:14:23;;;;;;;22.10;12.80;;;;;;;;;;5013119;28;20053;-65
2023/06/21 06:16:49;;;;;;;25.88;13.27;;;;;;;;;;5003870;28;20049;-65
2023/06/21 06:19:16;;;;;;;20.65;12.80;;;;;;;;;;5010655;28;20409;-66
2023/06/21 06:21:42;;;;;;;23.95;13.93;;;;;;;;;;5009475;28;20592;-66
2023/06/21 06:24:08;;;;;;;23.25;13.25;;;;;;;;;;5021509;28;20045;-66
2023/06/21 06:26:34;;;;;;;26.38;13.43;;;;;;;;;;5017822;28;20044;-66
2023/06/21 06:29:00;;;;;;;26.55;13.93;;;;;;;;;;5023360;28;20054;-65
2023/06/21 06:31:30;;;;;;;22.10;13.50;;;;;;;;;;5019226;28;20026;-65
2023/06/21 06:33:56;;;;;;;21.02;13.70;;;;;;;;;;5021924;28;20042;-65
2023/06/21 06:36:22;;;;;;;26.15;13.98;;;;;;;;;;5022775;28;20042;-66
2023/06/21 06:38:49;;;;;;;20.77;13.65;;;;;;;;;;5023357;28;20050;-66
2023/06/21 06:41:17;;;;;;;24.30;14.93;;;;;;;;;;5019053;28;20223;-66
2023/06/21 06:43:44;;;;;;;22.60;13.77;;;;;;;;;;5021158;28;20498;-65
2023/06/21 06:46:10;;;;;;;27.30;13.50;;;;;;;;;;5021968;28;20049;-66
2023/06/21 06:48:36;;;;;;;28.30;15.23;;;;;;;;;;5023361;28;20049;-65
2023/06/21 06:51:03;;;;;;;24.95;14.93;;;;;;;;;;5020132;28;20054;-65
2023/06/21 06:53:29;;;;;;;24.05;14.57;;;;;;;;;;5019414;28;20570;-66
2023/06/21 06:55:58;;;;;;;19.27;13.43;;;;;;;;;;5023615;28;20388;-65
2023/06/21 06:58:24;;;;;;;22.58;13.65;;;;;;;;;;5023495;28;20049;-65
2023/06/21 07:00:51;;;;;;;28.63;13.50;;;;;;;;;;5010190;28;20423;-65
2023/06/21 07:03:17;;;;;;;29.23;15.07;;;;;;;;;;5014738;28;20030;-65
2023/06/21 07:05:45;;;;;;;26.63;14.35;;;;;;;;;;5010414;28;20065;-65
2023/06/21 07:08:12;;;;;;;22.80;14.10;;;;;;;;;;5011965;28;20033;-65
2023/06/21 07:10:39;;;;;;;24.50;13.90;;;;;;;;;;5018124;28;20040;-65
2023/06/21 07:13:05;;;;;;;24.80;13.68;;;;;;;;;;5011756;28;20029;-64
2023/06/21 07:15:32;;;;;;;24.98;13.95;;;;;;;;;;5010608;28;20042;-66
2023/06/21 07:17:59;;;;;;;22.73;13.85;;;;;;;;;;5017833;28;20037;-66
2023/06/21 07:20:25;;;;;;;25.33;13.85;;;;;;;;;;5011734;28;20034;-65
2023/06/21 07:22:51;;;;;;;27.40;15.07;;;;;;;;;;5018341;28;20050;-65
2023/06/21 07:25:17;;;;;;;26.75;13.35;;;;;;;;;;5013418;28;20049;-65
2023/06/21 07:27:43;;;;;;;23.92;14.48;;;;;;;;;;5022341;28;20049;-66
2023/06/21 07:30:10;;;;;;;22.10;14.57;;;;;;;;;;5021978;28;20037;-65
2023/06/21 07:32:36;;;;;;;26.85;13.77;;;;;;;;;;5017364;28;20037;-65
2023/06/21 07:35:04;;;;;;;27.42;14.05;;;;;;;;;;5020882;28;20057;-65
2023/06/21 07:37:31;;;;;;;21.90;13.37;;;;;;;;;;5006609;28;20042;-65
2023/06/21 07:39:57;;;;;;;19.83;13.07;;;;;;;;;;5022991;28;20045;-65
2023/06/21 07:42:24;;;;;;;26.42;14.68;;;;;;;;;;5012968;28;20041;-65
2023/06/21 07:44:54;;;;;;;23.95;14.32;;;;;;;;;;5025849;28;20052;-66
2023/06/21 07:47:22;;;;;;;27.50;15.48;;;;;;;;;;5026708;28;20033;-66
2023/06/21 07:49:48;;;;;;;27.30;14.70;;;;;;;;;;5007551;28;20041;-66
2023/06/21 07:52:14;;;;;;;24.88;14.10;;;;;;;;;;5017973;28;20034;-65
2023/06/21 07:54:43;;;;;;;22.40;15.25;;;;;;;;;;5025740;28;20044;-66
2023/06/21 07:57:10;;;;;;;23.02;14.82;;;;;;;;;;5026313;28;20388;-65
2023/06/21 07:59:36;;;;;;;20.80;14.52;;;;;;;;;;5025191;28;20048;-66
2023/06/21 08:02:02;;;;;;;23.58;14.07;;;;;;;;;;5011600;28;20427;-66
2023/06/21 08:04:28;;;;;;;24.58;14.27;;;;;;;;;;5023898;28;20041;-66
2023/06/21 08:06:54;;;;;;;25.08;14.70;;;;;;;;;;5021757;28;20506;-64
2023/06/21 08:09:20;;;;;;;22.27;14.15;;;;;;;;;;5024187;28;20036;-66
2023/06/21 08:11:47;;;;;;;27.33;14.98;;;;;;;;;;5013658;28;20041;-66
2023/06/21 08:14:13;;;;;;;29.33;15.32;;;;;;;;;;5012728;28;20041;-66
2023/06/21 08:16:39;;;;;;;20.23;13.90;;;;;;;;;;5007820;28;20476;-67
2023/06/21 08:19:05;;;;;;;22.50;14.70;;;;;;;;;;5011986;28;20045;-65
2023/06/21 08:21:31;;;;;;;25.25;14.38;;;;;;;;;;5021819;28;20033;-65
2023/06/21 08:23:58;;;;;;;26.85;14.77;;;;;;;;;;5023490;28;20037;-65
2023/06/21 08:26:24;;;;;;;24.23;14.55;;;;;;;;;;5026556;28;20037;-66
2023/06/21 08:28:50;;;;;;;20.63;13.88;;;;;;;;;;5026153;28;20033;-66
2023/06/21 08:31:16;;;;;;;20.45;13.40;;;;;;;;;;5022938;28;20041;-63
2023/06/21 08:33:43;;;;;;;24.27;14.82;;;;;;;;;;5012393;28;20399;-66
2023/06/21 08:36:09;;;;;;;22.52;14.38;;;;;;;;;;5025775;28;20045;-66
2023/06/21 08:38:35;;;;;;;22.92;14.48;;;;;;;;;;5025412;28;20062;-65
2023/06/21 08:41:05;;;;;;;26.67;14.65;;;;;;;;;;5023445;28;20054;-66
2023/06/21 08:43:31;;;;;;;24.92;15.15;;;;;;;;;;5017552;28;20064;-66
2023/06/21 08:45:58;;;;;;;25.15;14.18;;;;;;;;;;5005792;28;20034;-66
2023/06/21 08:48:29;;;;;;;28.42;16.52;;;;;;;;;;5025361;28;20395;-66
2023/06/21 08:50:55;;;;;;;29.58;16.48;;;;;;;;;;5010669;28;20531;-66
2023/06/21 08:53:34;;;;;;;24.98;8.50;;;;;;;;;;5021411;28;20033;-60
2023/06/21 08:56:05;;;;;;;40.78;10.23;;;;;;;;;;5019584;28;20419;-60
2023/06/21 08:58:39;;;;;;;18.25;6.85;;;;;;;;;;5021529;28;20515;-59
2023/06/21 09:01:09;;;;;;;20.75;7.05;;;;;;;;;;5017313;28;20034;-58
2023/06/21 09:03:51;;;;;;;16.83;6.85;;;;;;;;;;5023899;28;20056;-60
2023/06/21 09:06:19;;;;;;;14.48;7.10;;;;;;;;;;5015857;28;20069;-62
2023/06/21 09:08:46;;;;;;;17.40;7.20;;;;;;;;;;5017609;28;20050;-63
2023/06/21 09:11:16;;;;;;;15.48;6.28;;;;;;;;;;5017111;28;20304;-63
2023/06/21 09:13:44;;;;;;;19.73;6.35;;;;;;;;;;5011978;28;20041;-64
2023/06/21 09:16:13;;;;;;;17.50;5.97;;;;;;;;;;5010545;28;20049;-64
2023/06/21 09:18:40;;;;;;;16.20;6.88;;;;;;;;;;5009248;28;20045;-64
2023/06/21 09:21:10;;;;;;;17.33;6.57;;;;;;;;;;5022660;28;20406;-64
2023/06/21 09:23:39;;;;;;;14.32;5.88;;;;;;;;;;5023271;28;20470;-63
2023/06/21 09:26:06;;;;;;;;;;;;;;;;;;5024413;28;20049;-64
2023/06/21 09:28:33;;;;;;;13.10;6.07;;;;;;;;;;5009699;28;19917;-63
2023/06/21 09:31:00;;;;;;;17.33;6.43;;;;;;;;;;5011390;28;20045;-67
2023/06/21 09:33:26;;;;;;;16.05;6.30;;;;;;;;;;5016815;28;20030;-65
2023/06/21 09:35:52;;;;;;;16.27;6.82;;;;;;;;;;5022676;28;20060;-64
2023/06/21 09:38:32;;;;;;;17.70;6.82;;;;;;;;;;5020742;28;20034;-63
2023/06/21 09:41:02;;;;;;;12.93;5.80;;;;;;;;;;5024437;28;20044;-63
2023/06/21 09:43:29;;;;;;;17.60;5.40;;;;;;;;;;5016088;28;20447;-64
2023/06/21 09:45:58;;;;;;;12.80;5.22;;;;;;;;;;5010721;28;20034;-64
2023/06/21 09:48:25;;;;;;;18.30;5.50;;;;;;;;;;5011126;28;20032;-65
2023/06/21 09:50:55;;;;;;;11.73;5.80;;;;;;;;;;5005075;28;20107;-64
2023/06/21 09:53:23;;;;;;;13.50;5.57;;;;;;;;;;5023547;28;20053;-64
2023/06/21 09:55:49;;;;;;;12.43;6.40;;;;;;;;;;5022157;28;20549;-65
2023/06/21 09:58:15;;;;;;;11.68;6.22;;;;;;;;;;5010235;28;20060;-65
2023/06/21 10:00:42;;;;;;;17.00;6.43;;;;;;;;;;5017820;28;20046;-65
2023/06/21 10:03:09;;;;;;;15.07;6.72;;;;;;;;;;5023247;28;20053;-65
2023/06/21 10:05:51;;;;;;;16.50;6.90;;;;;;;;;;5013148;28;20523;-66
2023/06/21 10:08:36;;;;;;;12.75;6.88;;;;;;;;;;5020139;28;20053;-65
2023/06/21 10:11:03;;;;;;;12.85;6.95;;;;;;;;;;5013030;28;20057;-66
2023/06/21 10:13:33;;;;;;;16.88;7.40;;;;;;;;;;5009808;28;20403;-65
2023/06/21 10:16:02;;;;;;;13.93;7.13;;;;;;;;;;5018804;28;20397;-66
2023/06/21 10:18:29;;;;;;;10.30;6.15;;;;;;;;;;5009893;28;20029;-65
2023/06/21 10:21:03;;;;;;;12.35;6.60;;;;;;;;;;5010157;28;20033;-68
2023/06/21 10:23:33;;;;;;;11.90;5.85;;;;;;;;;;5019764;28;20434;-66
2023/06/21 10:26:02;;;;;;;12.63;5.50;;;;;;;;;;5020312;28;20745;-66
2023/06/21 10:28:38;;;;;;;11.00;4.47;;;;;;;;;;5017418;28;20029;-65
2023/06/21 10:31:04;;;;;;;17.15;4.80;;;;;;;;;;5019347;28;20048;-66
2023/06/21 10:33:32;;;;;;;11.70;4.43;;;;;;;;;;5019486;28;20033;-67
2023/06/21 10:36:01;;;;;;;13.15;4.30;;;;;;;;;;5022801;28;20049;-67
2023/06/21 10:38:38;;;;;;;14.70;4.35;;;;;;;;;;5021795;28;20045;-66
2023/06/21 10:41:05;;;;;;;11.38;4.25;;;;;;;;;;5019784;28;20033;-68
2023/06/21 10:43:34;;;;;;;16.88;6.68;;;;;;;;;;5019496;28;20480;-67
2023/06/21 10:46:01;;;;;;;12.43;5.07;;;;;;;;;;5015846;28;20041;-64
2023/06/21 10:48:31;;;;;;;17.65;5.25;;;;;;;;;;5018385;28;20033;-65
2023/06/21 10:50:57;;;;;;;;;;;;;;;;;;5020553;28;20621;-64
2023/06/21 10:53:25;;;;;;;13.65;4.63;;;;;;;;;;5009922;28;19917;-65
2023/06/21 10:55:51;;;;;;;15.10;5.00;;;;;;;;;;5023213;28;20041;-64
2023/06/21 10:58:19;;;;;;;11.82;4.30;;;;;;;;;;5023418;28;20045;-64
2023/06/21 11:00:47;;;;;;;13.63;4.60;;;;;;;;;;5020441;28;20669;-65
2023/06/21 11:03:15;;;;;;;22.42;5.07;;;;;;;;;;5019103;28;20057;-65
2023/06/21 11:05:42;;;;;;;13.40;4.45;;;;;;;;;;5017996;28;20415;-63
2023/06/21 11:08:09;;;;;;;15.80;4.95;;;;;;;;;;5013393;28;20046;-64
2023/06/21 11:10:43;;;;;;;17.23;5.93;;;;;;;;;;5016591;28;20050;-64
2023/06/21 11:13:11;;;;;;;19.15;4.93;;;;;;;;;;5014556;28;20102;-64
2023/06/21 11:15:39;;;;;;;17.63;4.60;;;;;;;;;;5026410;28;20045;-64
2023/06/21 11:18:07;;;;;;;18.40;5.43;;;;;;;;;;5019615;28;20050;-65
2023/06/21 11:20:56;;;;;;;15.68;4.65;;;;;;;;;;5009832;28;20040;-64
2023/06/21 11:23:23;;;;;;;15.63;4.22;;;;;;;;;;5013221;28;20054;-65
2023/06/21 11:25:51;;;;;;;15.48;4.28;;;;;;;;;;5026633;28;20060;-67
2023/06/21 11:28:24;;;;;;;17.00;4.95;;;;;;;;;;5023801;28;20050;-65
2023/06/21 11:31:02;;;;;;;19.48;4.97;;;;;;;;;;5024104;28;20041;-64
2023/06/21 11:33:50;;;;;;;15.43;4.68;;;;;;;;;;5018311;28;20033;-65
2023/06/21 11:36:20;;;;;;;10.75;4.43;;;;;;;;;;5023048;28;20050;-65
2023/06/21 11:38:50;;;;;;;16.05;4.70;;;;;;;;;;5024370;28;20050;-64
2023/06/21 11:41:45;;;;;;;13.85;4.88;;;;;;;;;;5026408;28;20030;-63
2023/06/21 11:44:13;;;;;;;14.93;4.78;;;;;;;;;;5020385;28;20519;-68
2023/06/21 11:46:40;;;;;;;17.25;4.80;;;;;;;;;;5024526;28;20041;-65
2023/06/21 11:49:06;;;;;;;15.50;4.60;;;;;;;;;;5020500;28;20049;-68
2023/06/21 11:51:32;;;;;;;14.73;4.32;;;;;;;;;;5021118;28;20037;-66
2023/06/21 11:54:00;;;;;;;19.15;4.75;;;;;;;;;;5017813;28;20475;-68
2023/06/21 11:56:32;;;;;;;16.52;5.05;;;;;;;;;;5023840;28;20061;-69
2023/06/21 11:58:59;;;;;;;11.75;4.00;;;;;;;;;;5026143;28;20037;-68
2023/06/21 12:01:26;;;;;;;10.35;4.53;;;;;;;;;;5019462;28;20056;-69
2023/06/21 12:03:59;;;;;;;14.70;4.68;;;;;;;;;;5022691;28;20041;-70
2023/06/21 12:06:26;;;;;;;12.13;3.95;;;;;;;;;;5025574;28;20813;-71
2023/06/21 12:08:58;;;;;;;9.77;3.95;;;;;;;;;;5016720;28;20034;-69
2023/06/21 12:11:26;;;;;;;12.52;4.55;;;;;;;;;;5010918;28;20392;-69
2023/06/21 12:13:53;;;;;;;10.75;5.15;;;;;;;;;;5011318;28;20050;-67
2023/06/21 12:16:25;;;;;;;11.02;4.40;;;;;;;;;;5004874;28;20054;-69
2023/06/21 12:18:52;;;;;;;9.82;4.55;;;;;;;;;;5020742;28;20041;-68
2023/06/21 12:21:18;;;;;;;12.40;4.45;;;;;;;;;;5014806;28;20068;-69
2023/06/21 12:23:45;;;;;;;10.32;5.15;;;;;;;;;;5015803;28;20427;-67
2023/06/21 12:26:13;;;;;;;12.63;4.63;;;;;;;;;;5016199;28;20399;-67
2023/06/21 12:28:40;;;;;;;10.35;5.10;;;;;;;;;;5022447;28;20046;-66
2023/06/21 12:31:11;;;;;;;10.48;4.25;;;;;;;;;;5023696;28;20057;-67
2023/06/21 12:33:41;;;;;;;10.07;4.75;;;;;;;;;;5021343;28;20045;-67
2023/06/21 12:36:29;;;;;;;9.32;4.28;;;;;;;;;;5003418;28;20056;-68
2023/06/21 12:38:57;;;;;;;9.82;4.88;;;;;;;;;;5021907;28;20120;-69
2023/06/21 12:41:27;;;;;;;10.82;4.72;;;;;;;;;;5021280;28;20508;-68
2023/06/21 12:43:57;;;;;;;10.40;4.60;;;;;;;;;;5024938;28;20427;-65
2023/06/21 12:46:23;;;;;;;9.27;4.50;;;;;;;;;;5024775;28;20034;-67
2023/06/21 12:48:52;;;;;;;9.13;4.85;;;;;;;;;;5019946;28;20040;-68
2023/06/21 12:51:28;;;;;;;12.68;5.35;;;;;;;;;;5021228;28;20053;-68
2023/06/21 12:53:54;;;;;;;12.38;5.47;;;;;;;;;;4997863;28;20041;-67
2023/06/21 12:56:20;;;;;;;16.35;5.53;;;;;;;;;;5016589;28;20041;-67
2023/06/21 12:58:47;;;;;;;15.05;5.50;;;;;;;;;;5022304;28;20037;-67
2023/06/21 13:01:13;;;;;;;14.57;5.65;;;;;;;;;;5019068;28;20081;-67
2023/06/21 13:03:39;;;;;;;12.38;6.35;;;;;;;;;;5018767;28;20048;-68
2023/06/21 13:06:05;;;;;;;17.38;8.35;;;;;;;;;;5014960;28;20053;-66
2023/06/21 13:08:32;;;;;;;10.07;5.90;;;;;;;;;;5019281;28;20041;-68
2023/06/21 13:11:00;;;;;;;11.98;6.05;;;;;;;;;;5015184;28;20033;-67
2023/06/21 13:13:27;;;;;;;12.48;5.70;;;;;;;;;;5012068;28;20053;-69
2023/06/21 13:15:53;;;;;;;9.23;5.38;;;;;;;;;;5021683;28;20049;-69
2023/06/21 13:18:19;;;;;;;10.25;5.60;;;;;;;;;;5003456;28;20503;-68
2023/06/21 13:20:46;;;;;;;16.42;9.57;;;;;;;;;;5021206;28;20033;-67
2023/06/21 13:23:13;;;;;;;13.02;6.22;;;;;;;;;;5008596;28;20057;-68
2023/06/21 13:25:39;;;;;;;19.08;5.85;;;;;;;;;;5019606;28;20030;-64
2023/06/21 13:28:05;;;;;;;11.85;5.88;;;;;;;;;;5018794;28;20044;-64
2023/06/21 13:30:32;;;;;;;11.13;5.95;;;;;;;;;;5017397;28;20546;-62
2023/06/21 13:32:58;;;;;;;9.88;5.80;;;;;;;;;;5022100;28;20045;-62
2023/06/21 13:35:24;;;;;;;11.70;6.13;;;;;;;;;;5023289;28;20060;-61
2023/06/21 13:37:50;;;;;;;11.02;5.70;;;;;;;;;;5024810;28;20052;-61
2023/06/21 13:40:16;;;;;;;10.35;6.18;;;;;;;;;;5023155;28;20045;-62
2023/06/21 13:42:43;;;;;;;15.40;5.78;;;;;;;;;;5019506;28;20049;-62
2023/06/21 13:45:11;;;;;;;10.73;5.82;;;;;;;;;;5016927;28;20053;-62
2023/06/21 13:47:38;;;;;;;12.75;6.07;;;;;;;;;;5023470;28;20057;-62
2023/06/21 13:50:05;;;;;;;12.10;5.95;;;;;;;;;;5017690;28;20416;-62
2023/06/21 13:52:33;;;;;;;13.57;6.00;;;;;;;;;;5008557;28;20049;-62
2023/06/21 13:55:00;;;;;;;14.35;6.68;;;;;;;;;;5017210;28;20190;-63
2023/06/21 13:57:27;;;;;;;13.27;6.00;;;;;;;;;;5013891;28;20049;-62
2023/06/21 13:59:53;;;;;;;12.50;6.70;;;;;;;;;;5020428;28;20110;-62
2023/06/21 14:02:22;;;;;;;12.95;6.20;;;;;;;;;;5021015;28;20038;-62
2023/06/21 14:04:48;;;;;;;;;;;;;;;;;;5023981;28;20045;-65
2023/06/21 14:07:15;;;;;;;13.68;6.63;;;;;;;;;;5019597;28;20290;-66
2023/06/21 14:09:42;;;;;;;11.52;6.90;;;;;;;;;;5013981;28;20406;-67
2023/06/21 14:12:09;;;;;;;14.43;7.57;;;;;;;;;;5009408;28;20037;-69
2023/06/21 14:14:42;;;;;;;14.32;6.63;;;;;;;;;;5014845;28;20041;-66
2023/06/21 14:17:10;;;;;;;18.45;6.55;;;;;;;;;;5022006;28;20048;-64
2023/06/21 14:19:38;;;;;;;13.05;6.32;;;;;;;;;;5020095;28;20053;-65
2023/06/21 14:22:04;;;;;;;12.90;6.60;;;;;;;;;;5020584;28;20049;-64
2023/06/21 14:24:30;;;;;;;13.30;6.82;;;;;;;;;;5009793;28;20041;-65
2023/06/21 14:26:56;;;;;;;16.02;6.65;;;;;;;;;;5010384;28;20416;-64
2023/06/21 14:29:22;;;;;;;13.02;6.45;;;;;;;;;;5019599;28;20057;-62